Terminal Aerodrome Forecast
Issued by NWS

Home | Current Version | Previous Version | Graphics & Text | Print | Product List | Glossary On
Versions: 1 2 3 4 5 6 7 8 9 10 11 12 13 14 15 16 17
000
FTUS43 KICT 141700
TAFCNU
TAF
KCNU 141720Z 1418/1518 17010KT P6SM BKN050
     FM150200 16010KT P6SM SCT040
     FM151400 19012KT P6SM BKN100=

USA.gov is the U.S. government's official web portal to all federal, state and local government web resources and services.